aviador You're here:

K2W6 Decoded Metar

CAPT DUKE RGNL in MD, USA
Report Time2017-05-30 10:53:00
UTC Time2017-05-30 11:08:20
Flight Rules lifr LIFR
Wind100° at 05 kt
W.Rank100° ranks 33
Current wind is above 100° avg. (4.7)
Visibility9999 m
Phenomena:N/A
Clouds:Overcast 003 Hf
Expected CloudBase > 400 ft AGL from Temp-Dew spread
Ceiling300 ft
Temp16°C (ISA +1)
Dew Point15°C (94% RH)
AAT15.8°C
QNH1019 hPa
Density Alt322 ft
Elevation144 ft
Report Wrong Elevation
Raw Report
K2W6 301053Z AUTO 10005KT 10SM OVC003 16/15 A3008 RMK AO1=

Extra information for K2W6:More info

Metar Taf Metar & Taf Last 4 Metars F.Rules Stats Wind Profile Meteogram Temp Stats Airport Information Weather charts Add Link Nearby VenuesMetar ALERT Operation Metar Decoded Social comments

AIRNAV info for K2W6